Erdem Tasci

Scout - Antalyaspor
20 Nov 2027
Saturday
Process

Personality

Adaptability (5) Ambition (18) Controversy (17) Loyalty (13) Pressure (11) Professionalism (14) Sportsmanship (14) Temperament (2)

Profile

Coaching Style Democratic
License National B
Determination 10
Man Management 11
Motivating 5
Discipline 6
Job Satisfaction
100%
Fatigue
0%
Role Scout
Wage 61.4K p/w
Contract 14.03.2029

Performance

Behaviour Good
Training Effectiveness
44%
Player Development
20%
Injury Prevention
65%
Tactical Implementation
40%

Recent Events

Attended a recruitment meeting now
Recommended a transfer target now
Attended a recruitment meeting 7d ago
Recommended a transfer target 7d ago
Attended a recruitment meeting 7d ago
Attended a recruitment meeting 7d ago
Attended a recruitment meeting 14d ago
Attended a recruitment meeting 14d ago

Currently Monitoring

117
Player Club Status Ability Confidence Watched Last Observed Latest Vote
Mostafa Mohamed Konyaspor Active 141 / 136 58% 1 14.06.2027 Approve
Caleb Yirenkyi Coventry City Active 123 / 137 40% 8 16.05.2027 -
Tommaso Cecotti Carpi Active 96 / 116 40% 2 16.05.2027 -
Davide Bartesaghi AC Milan Active 145 / 134 40% 1 12.05.2027 -
Leandro Martins Benfica Active 93 / 100 40% 4 10.05.2027 -
Lucas Jetten Cambuur Active 109 / 133 40% 1 10.05.2027 -
Jaydee Canvot Liverpool Active 125 / 121 40% 1 09.05.2027 -
Martim Cunha Porto Active 106 / 100 40% 3 07.05.2027 -
Edmund Inusah WAFA Active 78 / 90 40% 2 06.05.2027 -
Christos Mouzakitis Hull City Active 133 / 151 40% 1 03.05.2027 -
Riquelme Thompson-Jones Shrewsbury Town Active 89 / 127 40% 3 25.04.2027 -
Gonçalo Oliveira Benfica Active 105 / 130 40% 1 25.04.2027 -
Milad Jahanbakhsh Rah Ahan Active 102 / 124 40% 1 24.04.2027 -
Taylan Bulut Basaksehir Active 125 / 136 40% 2 21.04.2027 -
Sam Curtis Swindon Town Active 105 / 97 40% 1 20.04.2027 -
Emirhan Başyiğit Sivasspor Active 107 / 124 40% 4 19.04.2027 -
Mohammed Wakaso Hasaacas Active 106 / 89 40% 1 14.04.2027 -
Batuhan Yavuz Ankaragucu Active 85 / 100 40% 1 12.04.2027 -
Eivind Helland Bologna Active 143 / 128 40% 1 07.04.2027 -
Gladson Sulemana Liberty Professionals Active 87 / 96 40% 1 05.04.2027 -
Edwin Asamoah Berekum Chelsea Active 85 / 97 40% 2 01.04.2027 -
Abraham Paintsil Hasaacas Active 94 / 89 40% 2 31.03.2027 -
Jofre Torrents Ajax Active 130 / 140 40% 1 29.03.2027 -
Joel McGregor Swindon Town Active 100 / 111 40% 1 29.03.2027 -
Surprise Manthosi Polokwane City Active 82 / 82 40% 1 25.03.2027 -
Taras Mykhavko Dynamo Kyiv Active 126 / 114 40% 1 21.03.2027 -
Tiago Freitas Benfica Active 96 / 106 40% 1 15.03.2027 -
Riley Owen Wycombe Wanderers Active 97 / 122 40% 1 11.03.2027 -
Martin Georgiev AEL Larisa Active 100 / 119 40% 1 04.03.2027 -
Nordi Mukiele Sunderland Active 133 / 139 40% 2 11.01.2027 -
Sidny Lopes Cabral Trabzonspor Active 123 / 134 40% 3 31.12.2026 Monitor
Tyrell Malacia Derby County Active 125 / 121 40% 3 31.12.2026 -
Amir Murillo Besiktas Active 130 / 133 40% 1 30.12.2026 Needs More Info
Kenny Tete Fulham Active 143 / 145 40% 2 25.12.2026 -
Shea Charles Southampton Active 121 / 135 40% 2 23.12.2026 -
Christian Krasnodar Active 136 / 137 40% 8 22.12.2026 -
Gustavo Hamer Sheffield United Active 142 / 148 40% 1 22.12.2026 -
Brooke Norton-Cuffy Hull City Active 126 / 123 40% 2 21.12.2026 -
Saša Lukić Ipswich Town Active 130 / 146 40% 1 20.12.2026 -
Riechedly Bazoer Konyaspor Active 130 / 132 40% 2 19.12.2026 -
Yehor Yarmoliuk Brentford Active 150 / 129 40% 2 18.12.2026 -
Igor Burnley Active 151 / 154 40% 1 18.12.2026 -
Max Bird Birmingham Active 130 / 126 40% 1 16.12.2026 -
Bariş Kalaycı Fatih Karagumruk Active 107 / 105 40% 2 15.12.2026 -
Kabu Agyemang Raymond Bechem United Active 70 / 84 40% 1 15.12.2026 -
Milan van Ewijk Coventry City Active 127 / 137 40% 1 12.12.2026 -
Furkan Demir Rapid Wien Active 119 / 106 40% 2 11.12.2026 -
Ethan Galbraith Swansea City Active 128 / 141 40% 2 09.12.2026 -
Lévy Néne Esbjerg Active 128 / 103 40% 1 08.12.2026 -
Kirill Cheburakov Rostov Active 68 / 73 40% 1 07.12.2026 -
André Wolverhampton Active 154 / 164 40% 1 05.12.2026 -
Anel Ahmedhodžić Burnley Active 128 / 117 40% 1 03.12.2026 -
Tariq Lamptey Queens Park Rangers Active 134 / 119 40% 1 02.12.2026 -
Ognjen Bondžulić Mladost Lucani Active 86 / 104 40% 1 01.12.2026 -
Pedro Porro Tottenham Active 156 / 146 40% 4 30.11.2026 -
Quinten Timber Crystal Palace Active 162 / 155 40% 2 30.11.2026 -
Adam Wharton Crystal Palace Active 132 / 139 40% 1 29.11.2026 -
Alexey Batrakov Galatasaray Active 140 / 134 40% 2 28.11.2026 -
Abubakar Garba Nasarawa United Active 92 / 105 40% 3 27.11.2026 -
Alexei Dominguez Pachuca Active 99 / 122 40% 1 27.11.2026 -
Juanlu Bournemouth Active 133 / 158 40% 1 27.11.2026 -
Ousseynou Ba Basaksehir Active 126 / 119 40% 2 26.11.2026 -
Sindre Walle Egeli Nottingham Forest Active 122 / 152 40% 1 25.11.2026 -
Xavier Biscayzacú Sporting CP Active 128 / 108 40% 1 24.11.2026 -
Tijjani Reijnders Al-Qadisiyah Active 167 / 174 40% 2 21.11.2026 -
Tyler Adams Bournemouth Active 160 / 160 40% 2 21.11.2026 -
Calvin Bassey Fulham Active 140 / 159 40% 1 19.11.2026 -
Wagner Pina Trabzonspor Active 123 / 125 40% 2 18.11.2026 -
Gabriel Sara Galatasaray Active 148 / 128 40% 2 17.11.2026 -
Jordan Lotomba Bloemfontein Celtic Active 140 / 121 40% 1 17.11.2026 -
Noah Sadiki Sunderland Active 159 / 157 40% 1 15.11.2026 -
Jordan Beyer Burnley Active 134 / 121 40% 1 14.11.2026 -
Mustafa Hekimoğlu Trabzonspor Active 105 / 134 40% 2 13.11.2026 -
Mihailo Ivanović Millwall Active 135 / 139 40% 1 10.11.2026 -
Csanád Vilmos Dénes Debrecen Active 97 / 110 40% 1 09.11.2026 -
Kaio Eduardo Basel Active 106 / 116 40% 1 09.11.2026 -
Matías Contrera Northampton Town Active 101 / 117 40% 1 05.11.2026 -
Olivier Kemen Basaksehir Active 122 / 129 40% 2 03.11.2026 -
Tiago Djaló Besiktas Active 135 / 141 40% 2 02.11.2026 -
Luis Pérez Gaziantep Active 116 / 117 40% 1 01.11.2026 -
Jayden Oosterwolde Fenerbahce Active 140 / 142 40% 3 30.10.2026 -
Wilfried Singo Galatasaray Active 132 / 143 40% 1 28.10.2026 -
Miloš Jovičić Zabbar St. Patrick Active 110 / 79 40% 1 28.10.2026 -
Davinson Sánchez Galatasaray Active 141 / 142 40% 1 23.10.2026 -
Nino Zenit Active 146 / 135 40% 1 23.10.2026 -
Wilfred Ndidi Besiktas Active 117 / 141 40% 1 22.10.2026 -
Milan Škriniar Fenerbahce Active 150 / 166 40% 1 21.10.2026 -
Nélson Semedo Fenerbahce Active 138 / 133 40% 2 19.10.2026 -
Chineme Chinonso Ikorodu City Active 96 / 102 40% 1 17.10.2026 -
Yusuf Özdemir Alanyaspor Active 125 / 116 40% 1 16.10.2026 -
Sergi Palencia Los Angeles Football Club Active 115 / 120 40% 1 14.10.2026 -
Nicolás Romero Minnesota United FC Active 123 / 138 40% 1 11.10.2026 -
Oumar Camara Vitoria Guimaraes Active 100 / 131 40% 1 11.10.2026 -
Gedson Fernandes Spartak Moscow Active 131 / 127 40% 1 07.10.2026 -
Cláudio Winck Kasimpasa Active 105 / 123 40% 1 07.10.2026 -
Musab Al-Juwayr Al-Qadisiyah Active 115 / 139 40% 1 07.10.2026 -
Festy Ebosele Basaksehir Active 130 / 129 40% 1 04.10.2026 -
Drissa Camara Gaziantep Active 130 / 110 40% 1 03.10.2026 -
Nectar Triantis Minnesota United FC Active 121 / 124 40% 1 02.10.2026 -
Gonzalo Luján Inter Miami CF Active 136 / 127 40% 1 01.10.2026 -
Erik Flataker AIK Active 127 / 102 40% 1 29.09.2026 -
Leon Grgić Sturm Graz Active 126 / 121 40% 1 28.09.2026 -
Mathias Fjørtoft Løvik Trabzonspor Active 121 / 138 40% 1 24.09.2026 -
Tim Jabol-Folcarelli Galatasaray Active 121 / 122 40% 1 24.09.2026 -
Archie Goodwin Charlotte Football Club Active 121 / 95 40% 1 22.09.2026 -
Hojjat Ahmadi Esteghlal Khuzestan Active 111 / 84 40% 1 22.09.2026 -
Archie Brown Fenerbahce Active 118 / 145 40% 1 21.09.2026 -
Andrés Herrera Columbus Crew Active 139 / 132 40% 1 21.09.2026 -
İsmail Yüksek Fenerbahce Active 129 / 135 40% 1 19.09.2026 -
Alexander Lyng SonderjyskE Active 115 / 108 40% 1 14.09.2026 -
Jonathan Cook Leicester City Active 72 / 73 40% 1 14.09.2026 -
Rubens Dinamo Moscow Active 132 / 123 40% 1 12.09.2026 -
Bryan Ramírez FC Cincinnati Active 127 / 133 40% 1 09.09.2026 -
Thiago Perugini San Lorenzo Active 86 / 91 40% 1 01.09.2026 -
Luka Jovanović San Jose Earthquakes Active 102 / 109 40% 1 01.09.2026 -
Yusuf Akçiçek Al-Hilal Active 124 / 109 40% 1 03.08.2026 -
Cemran Dansin Orlando Pirates Active 94 / 123 40% 1 03.08.2026 -